sensor_id;sensor_type;location;lat;lon;timestamp;P1;durP1;ratioP1;P2;durP2;ratioP2
6217;SDS011;3142;48.206;11.550;2023-01-01T00:01:11;158.50;;;105.40;;
6217;SDS011;3142;48.206;11.550;2023-01-01T00:03:39;175.10;;;110.77;;
6217;SDS011;3142;48.206;11.550;2023-01-01T00:06:06;170.27;;;112.70;;
6217;SDS011;3142;48.206;11.550;2023-01-01T00:08:35;181.43;;;124.83;;
6217;SDS011;3142;48.206;11.550;2023-01-01T00:11:02;219.33;;;145.97;;
6217;SDS011;3142;48.206;11.550;2023-01-01T00:13:29;248.33;;;159.20;;
6217;SDS011;3142;48.206;11.550;2023-01-01T00:16:02;235.87;;;159.17;;
6217;SDS011;3142;48.206;11.550;2023-01-01T00:18:29;240.17;;;154.27;;
6217;SDS011;3142;48.206;11.550;2023-01-01T00:21:00;214.40;;;145.43;;
6217;SDS011;3142;48.206;11.550;2023-01-01T00:23:27;204.87;;;136.50;;
6217;SDS011;3142;48.206;11.550;2023-01-01T00:25:54;187.60;;;120.97;;
6217;SDS011;3142;48.206;11.550;2023-01-01T00:28:21;158.60;;;105.30;;
6217;SDS011;3142;48.206;11.550;2023-01-01T00:30:47;157.27;;;104.67;;
6217;SDS011;3142;48.206;11.550;2023-01-01T00:33:14;138.60;;;90.80;;
6217;SDS011;3142;48.206;11.550;2023-01-01T00:35:40;130.60;;;85.47;;
6217;SDS011;3142;48.206;11.550;2023-01-01T00:38:07;80.53;;;53.43;;
6217;SDS011;3142;48.206;11.550;2023-01-01T00:40:33;68.70;;;44.13;;
6217;SDS011;3142;48.206;11.550;2023-01-01T00:43:01;57.23;;;39.90;;
6217;SDS011;3142;48.206;11.550;2023-01-01T00:45:27;52.13;;;36.27;;
6217;SDS011;3142;48.206;11.550;2023-01-01T00:47:54;79.90;;;51.00;;
6217;SDS011;3142;48.206;11.550;2023-01-01T00:50:20;57.93;;;37.87;;
6217;SDS011;3142;48.206;11.550;2023-01-01T00:52:47;47.33;;;32.90;;
6217;SDS011;3142;48.206;11.550;2023-01-01T00:55:14;46.03;;;31.70;;
6217;SDS011;3142;48.206;11.550;2023-01-01T00:57:41;39.43;;;26.93;;
6217;SDS011;3142;48.206;11.550;2023-01-01T01:00:09;31.40;;;21.50;;
6217;SDS011;3142;48.206;11.550;2023-01-01T01:02:37;33.83;;;21.83;;
6217;SDS011;3142;48.206;11.550;2023-01-01T01:05:03;49.50;;;28.37;;
6217;SDS011;3142;48.206;11.550;2023-01-01T01:07:32;29.97;;;20.03;;
6217;SDS011;3142;48.206;11.550;2023-01-01T01:09:59;24.37;;;16.77;;
6217;SDS011;3142;48.206;11.550;2023-01-01T01:12:26;24.57;;;15.13;;
6217;SDS011;3142;48.206;11.550;2023-01-01T01:14:52;17.33;;;12.83;;
6217;SDS011;3142;48.206;11.550;2023-01-01T01:17:20;18.87;;;12.50;;
6217;SDS011;3142;48.206;11.550;2023-01-01T01:19:46;15.40;;;11.17;;
6217;SDS011;3142;48.206;11.550;2023-01-01T01:22:13;14.47;;;10.63;;
6217;SDS011;3142;48.206;11.550;2023-01-01T01:24:39;15.83;;;11.20;;
6217;SDS011;3142;48.206;11.550;2023-01-01T01:27:06;29.03;;;19.20;;
6217;SDS011;3142;48.206;11.550;2023-01-01T01:29:32;29.00;;;19.83;;
6217;SDS011;3142;48.206;11.550;2023-01-01T01:31:58;44.00;;;27.13;;
6217;SDS011;3142;48.206;11.550;2023-01-01T01:34:26;30.87;;;19.83;;
6217;SDS011;3142;48.206;11.550;2023-01-01T01:36:53;21.73;;;14.67;;
6217;SDS011;3142;48.206;11.550;2023-01-01T01:39:19;14.93;;;10.17;;
6217;SDS011;3142;48.206;11.550;2023-01-01T01:41:46;13.73;;;9.73;;
6217;SDS011;3142;48.206;11.550;2023-01-01T01:47:15;11.60;;;8.47;;
6217;SDS011;3142;48.206;11.550;2023-01-01T01:49:47;12.37;;;8.57;;
6217;SDS011;3142;48.206;11.550;2023-01-01T01:52:17;10.07;;;7.83;;
6217;SDS011;3142;48.206;11.550;2023-01-01T01:54:44;14.97;;;10.87;;
6217;SDS011;3142;48.206;11.550;2023-01-01T01:57:11;15.67;;;12.50;;
6217;SDS011;3142;48.206;11.550;2023-01-01T01:59:39;14.30;;;10.97;;
6217;SDS011;3142;48.206;11.550;2023-01-01T02:02:11;13.83;;;9.20;;
6217;SDS011;3142;48.206;11.550;2023-01-01T02:04:41;13.60;;;9.30;;
6217;SDS011;3142;48.206;11.550;2023-01-01T02:07:09;13.47;;;9.80;;
6217;SDS011;3142;48.206;11.550;2023-01-01T02:09:37;15.37;;;10.13;;
6217;SDS011;3142;48.206;11.550;2023-01-01T02:12:04;13.73;;;9.50;;
6217;SDS011;3142;48.206;11.550;2023-01-01T02:14:31;12.77;;;9.40;;
6217;SDS011;3142;48.206;11.550;2023-01-01T02:16:59;12.77;;;9.43;;
6217;SDS011;3142;48.206;11.550;2023-01-01T02:19:43;13.13;;;9.20;;
6217;SDS011;3142;48.206;11.550;2023-01-01T02:22:25;12.50;;;9.03;;
6217;SDS011;3142;48.206;11.550;2023-01-01T02:25:04;12.47;;;8.83;;
6217;SDS011;3142;48.206;11.550;2023-01-01T02:27:42;15.23;;;9.83;;
6217;SDS011;3142;48.206;11.550;2023-01-01T02:30:18;11.60;;;8.53;;
6217;SDS011;3142;48.206;11.550;2023-01-01T02:32:46;12.63;;;9.40;;
6217;SDS011;3142;48.206;11.550;2023-01-01T02:35:16;12.37;;;8.20;;
6217;SDS011;3142;48.206;11.550;2023-01-01T02:38:04;13.30;;;8.80;;
6217;SDS011;3142;48.206;11.550;2023-01-01T02:40:35;13.10;;;8.23;;
6217;SDS011;3142;48.206;11.550;2023-01-01T02:43:06;11.80;;;7.97;;
6217;SDS011;3142;48.206;11.550;2023-01-01T02:45:34;10.63;;;8.23;;
6217;SDS011;3142;48.206;11.550;2023-01-01T02:48:04;9.90;;;7.07;;
6217;SDS011;3142;48.206;11.550;2023-01-01T02:50:31;12.00;;;8.17;;
6217;SDS011;3142;48.206;11.550;2023-01-01T02:53:05;10.83;;;7.53;;
6217;SDS011;3142;48.206;11.550;2023-01-01T02:55:42;11.83;;;8.20;;
6217;SDS011;3142;48.206;11.550;2023-01-01T02:58:15;11.03;;;8.57;;
6217;SDS011;3142;48.206;11.550;2023-01-01T03:01:10;9.80;;;7.63;;
6217;SDS011;3142;48.206;11.550;2023-01-01T03:03:41;10.37;;;7.80;;
6217;SDS011;3142;48.206;11.550;2023-01-01T03:06:19;11.03;;;8.53;;
6217;SDS011;3142;48.206;11.550;2023-01-01T03:08:55;10.33;;;7.67;;
6217;SDS011;3142;48.206;11.550;2023-01-01T03:11:31;13.77;;;9.10;;
6217;SDS011;3142;48.206;11.550;2023-01-01T03:14:04;13.03;;;8.63;;
6217;SDS011;3142;48.206;11.550;2023-01-01T03:16:35;10.53;;;7.83;;
6217;SDS011;3142;48.206;11.550;2023-01-01T03:19:09;11.40;;;8.33;;
6217;SDS011;3142;48.206;11.550;2023-01-01T03:21:41;10.53;;;7.73;;
6217;SDS011;3142;48.206;11.550;2023-01-01T03:24:11;10.23;;;7.47;;
6217;SDS011;3142;48.206;11.550;2023-01-01T03:26:42;11.63;;;8.43;;
6217;SDS011;3142;48.206;11.550;2023-01-01T03:29:11;12.77;;;8.93;;
6217;SDS011;3142;48.206;11.550;2023-01-01T03:31:40;12.20;;;8.70;;
6217;SDS011;3142;48.206;11.550;2023-01-01T03:34:11;10.83;;;7.83;;
6217;SDS011;3142;48.206;11.550;2023-01-01T03:36:42;11.20;;;8.10;;
6217;SDS011;3142;48.206;11.550;2023-01-01T03:39:13;10.67;;;7.60;;
6217;SDS011;3142;48.206;11.550;2023-01-01T03:41:45;11.90;;;7.50;;
6217;SDS011;3142;48.206;11.550;2023-01-01T03:44:16;10.33;;;6.97;;
6217;SDS011;3142;48.206;11.550;2023-01-01T03:46:49;9.67;;;7.40;;
6217;SDS011;3142;48.206;11.550;2023-01-01T03:49:16;10.23;;;7.33;;
6217;SDS011;3142;48.206;11.550;2023-01-01T03:51:53;12.97;;;8.23;;
6217;SDS011;3142;48.206;11.550;2023-01-01T03:54:32;13.57;;;7.67;;
6217;SDS011;3142;48.206;11.550;2023-01-01T03:57:06;13.33;;;7.53;;
6217;SDS011;3142;48.206;11.550;2023-01-01T03:59:39;9.63;;;7.47;;
6217;SDS011;3142;48.206;11.550;2023-01-01T04:02:13;10.10;;;7.73;;
6217;SDS011;3142;48.206;11.550;2023-01-01T04:04:45;11.53;;;7.80;;
6217;SDS011;3142;48.206;11.550;2023-01-01T04:07:12;9.73;;;7.63;;
6217;SDS011;3142;48.206;11.550;2023-01-01T04:09:38;8.97;;;7.30;;
6217;SDS011;3142;48.206;11.550;2023-01-01T04:12:09;9.00;;;7.53;;
6217;SDS011;3142;48.206;11.550;2023-01-01T04:14:36;9.70;;;7.67;;
6217;SDS011;3142;48.206;11.550;2023-01-01T04:17:04;11.87;;;7.27;;
6217;SDS011;3142;48.206;11.550;2023-01-01T04:19:33;10.00;;;7.23;;
6217;SDS011;3142;48.206;11.550;2023-01-01T04:22:00;10.87;;;6.60;;
6217;SDS011;3142;48.206;11.550;2023-01-01T04:24:27;9.63;;;7.17;;
6217;SDS011;3142;48.206;11.550;2023-01-01T04:26:54;8.37;;;6.53;;
6217;SDS011;3142;48.206;11.550;2023-01-01T04:29:21;11.80;;;7.53;;
6217;SDS011;3142;48.206;11.550;2023-01-01T04:31:48;9.13;;;7.10;;
6217;SDS011;3142;48.206;11.550;2023-01-01T04:34:14;14.57;;;7.27;;
6217;SDS011;3142;48.206;11.550;2023-01-01T04:36:42;9.57;;;6.70;;
6217;SDS011;3142;48.206;11.550;2023-01-01T04:39:09;8.03;;;6.83;;
6217;SDS011;3142;48.206;11.550;2023-01-01T04:41:35;7.37;;;6.23;;
6217;SDS011;3142;48.206;11.550;2023-01-01T04:44:02;10.47;;;6.83;;
6217;SDS011;3142;48.206;11.550;2023-01-01T04:46:29;9.37;;;7.03;;
6217;SDS011;3142;48.206;11.550;2023-01-01T04:48:55;11.67;;;6.70;;
6217;SDS011;3142;48.206;11.550;2023-01-01T04:51:21;8.60;;;6.73;;
6217;SDS011;3142;48.206;11.550;2023-01-01T04:53:49;11.43;;;6.67;;
6217;SDS011;3142;48.206;11.550;2023-01-01T04:56:17;10.03;;;6.60;;
6217;SDS011;3142;48.206;11.550;2023-01-01T04:58:45;9.50;;;6.43;;
6217;SDS011;3142;48.206;11.550;2023-01-01T05:01:16;9.60;;;6.83;;
6217;SDS011;3142;48.206;11.550;2023-01-01T05:03:44;7.67;;;6.87;;
6217;SDS011;3142;48.206;11.550;2023-01-01T05:06:11;8.07;;;7.03;;
6217;SDS011;3142;48.206;11.550;2023-01-01T05:08:38;10.30;;;7.63;;
6217;SDS011;3142;48.206;11.550;2023-01-01T05:11:08;11.03;;;7.13;;
6217;SDS011;3142;48.206;11.550;2023-01-01T05:13:36;9.60;;;7.30;;
6217;SDS011;3142;48.206;11.550;2023-01-01T05:16:03;9.93;;;6.93;;
6217;SDS011;3142;48.206;11.550;2023-01-01T05:18:31;10.83;;;7.53;;
6217;SDS011;3142;48.206;11.550;2023-01-01T05:20:59;11.63;;;7.43;;
6217;SDS011;3142;48.206;11.550;2023-01-01T05:23:26;10.23;;;7.47;;
6217;SDS011;3142;48.206;11.550;2023-01-01T05:25:52;10.50;;;7.13;;
6217;SDS011;3142;48.206;11.550;2023-01-01T05:28:20;9.07;;;7.47;;
6217;SDS011;3142;48.206;11.550;2023-01-01T05:30:48;10.47;;;7.70;;
6217;SDS011;3142;48.206;11.550;2023-01-01T05:33:14;10.00;;;7.20;;
6217;SDS011;3142;48.206;11.550;2023-01-01T05:35:40;8.70;;;6.87;;
6217;SDS011;3142;48.206;11.550;2023-01-01T05:38:07;12.57;;;7.43;;
6217;SDS011;3142;48.206;11.550;2023-01-01T05:40:33;10.57;;;7.83;;
6217;SDS011;3142;48.206;11.550;2023-01-01T05:43:00;11.03;;;7.90;;
6217;SDS011;3142;48.206;11.550;2023-01-01T05:45:27;11.03;;;7.53;;
6217;SDS011;3142;48.206;11.550;2023-01-01T05:47:54;13.07;;;7.73;;
6217;SDS011;3142;48.206;11.550;2023-01-01T05:50:20;9.30;;;6.93;;
6217;SDS011;3142;48.206;11.550;2023-01-01T05:52:47;8.87;;;7.07;;
6217;SDS011;3142;48.206;11.550;2023-01-01T05:55:13;9.53;;;7.47;;
6217;SDS011;3142;48.206;11.550;2023-01-01T05:57:39;9.93;;;7.33;;
6217;SDS011;3142;48.206;11.550;2023-01-01T06:00:06;10.80;;;6.97;;
6217;SDS011;3142;48.206;11.550;2023-01-01T06:02:35;12.40;;;8.00;;
6217;SDS011;3142;48.206;11.550;2023-01-01T06:05:01;10.20;;;6.80;;
6217;SDS011;3142;48.206;11.550;2023-01-01T06:07:27;8.63;;;6.93;;
6217;SDS011;3142;48.206;11.550;2023-01-01T06:09:54;8.67;;;6.97;;
6217;SDS011;3142;48.206;11.550;2023-01-01T06:12:20;9.60;;;6.60;;
6217;SDS011;3142;48.206;11.550;2023-01-01T06:14:47;8.57;;;6.30;;
6217;SDS011;3142;48.206;11.550;2023-01-01T06:17:13;7.37;;;6.00;;
6217;SDS011;3142;48.206;11.550;2023-01-01T06:19:41;7.43;;;5.30;;
6217;SDS011;3142;48.206;11.550;2023-01-01T06:22:07;11.57;;;5.80;;
6217;SDS011;3142;48.206;11.550;2023-01-01T06:24:33;7.37;;;5.17;;
6217;SDS011;3142;48.206;11.550;2023-01-01T06:27:00;6.13;;;5.17;;
6217;SDS011;3142;48.206;11.550;2023-01-01T06:29:26;6.87;;;5.23;;
6217;SDS011;3142;48.206;11.550;2023-01-01T06:31:53;5.80;;;4.97;;
6217;SDS011;3142;48.206;11.550;2023-01-01T06:34:19;7.53;;;4.03;;
6217;SDS011;3142;48.206;11.550;2023-01-01T06:36:47;5.87;;;4.33;;
6217;SDS011;3142;48.206;11.550;2023-01-01T06:39:13;5.63;;;4.10;;
6217;SDS011;3142;48.206;11.550;2023-01-01T06:41:40;5.83;;;4.33;;
6217;SDS011;3142;48.206;11.550;2023-01-01T06:44:06;6.50;;;4.67;;
6217;SDS011;3142;48.206;11.550;2023-01-01T06:46:33;4.57;;;3.60;;
6217;SDS011;3142;48.206;11.550;2023-01-01T06:49:01;4.30;;;3.73;;
6217;SDS011;3142;48.206;11.550;2023-01-01T06:51:30;6.60;;;4.27;;
6217;SDS011;3142;48.206;11.550;2023-01-01T06:53:59;5.53;;;3.63;;
6217;SDS011;3142;48.206;11.550;2023-01-01T06:56:27;5.00;;;3.90;;
6217;SDS011;3142;48.206;11.550;2023-01-01T06:58:54;3.87;;;3.47;;
6217;SDS011;3142;48.206;11.550;2023-01-01T07:01:22;4.80;;;3.73;;
6217;SDS011;3142;48.206;11.550;2023-01-01T07:03:50;9.03;;;4.50;;
6217;SDS011;3142;48.206;11.550;2023-01-01T07:06:17;8.90;;;4.30;;
6217;SDS011;3142;48.206;11.550;2023-01-01T07:08:44;4.50;;;4.00;;
6217;SDS011;3142;48.206;11.550;2023-01-01T07:11:12;4.77;;;4.00;;
6217;SDS011;3142;48.206;11.550;2023-01-01T07:13:38;5.40;;;3.83;;
6217;SDS011;3142;48.206;11.550;2023-01-01T07:16:05;5.10;;;3.80;;
6217;SDS011;3142;48.206;11.550;2023-01-01T07:18:32;5.53;;;3.73;;
6217;SDS011;3142;48.206;11.550;2023-01-01T07:20:59;4.77;;;3.90;;
6217;SDS011;3142;48.206;11.550;2023-01-01T07:23:27;5.23;;;3.80;;
6217;SDS011;3142;48.206;11.550;2023-01-01T07:25:55;4.90;;;4.23;;
6217;SDS011;3142;48.206;11.550;2023-01-01T07:28:23;4.53;;;3.33;;
6217;SDS011;3142;48.206;11.550;2023-01-01T07:30:50;6.43;;;3.33;;
6217;SDS011;3142;48.206;11.550;2023-01-01T07:33:18;5.97;;;3.40;;
6217;SDS011;3142;48.206;11.550;2023-01-01T07:35:46;4.10;;;3.43;;
6217;SDS011;3142;48.206;11.550;2023-01-01T07:38:13;5.07;;;3.80;;
6217;SDS011;3142;48.206;11.550;2023-01-01T07:40:40;4.03;;;3.33;;
6217;SDS011;3142;48.206;11.550;2023-01-01T07:43:07;4.63;;;3.23;;
6217;SDS011;3142;48.206;11.550;2023-01-01T07:45:35;4.57;;;3.47;;
6217;SDS011;3142;48.206;11.550;2023-01-01T07:48:02;5.63;;;3.47;;
6217;SDS011;3142;48.206;11.550;2023-01-01T07:50:29;4.17;;;2.90;;
6217;SDS011;3142;48.206;11.550;2023-01-01T07:52:57;4.70;;;3.20;;
6217;SDS011;3142;48.206;11.550;2023-01-01T07:55:24;6.00;;;3.83;;
6217;SDS011;3142;48.206;11.550;2023-01-01T07:57:50;4.33;;;3.43;;
6217;SDS011;3142;48.206;11.550;2023-01-01T08:00:17;6.87;;;4.23;;
6217;SDS011;3142;48.206;11.550;2023-01-01T08:02:46;3.07;;;2.57;;
6217;SDS011;3142;48.206;11.550;2023-01-01T08:05:13;4.97;;;3.10;;
6217;SDS011;3142;48.206;11.550;2023-01-01T08:07:41;6.30;;;4.10;;
6217;SDS011;3142;48.206;11.550;2023-01-01T08:10:11;3.53;;;3.13;;
6217;SDS011;3142;48.206;11.550;2023-01-01T08:12:37;4.10;;;3.37;;
6217;SDS011;3142;48.206;11.550;2023-01-01T08:15:04;5.10;;;2.83;;
6217;SDS011;3142;48.206;11.550;2023-01-01T08:17:31;4.83;;;2.87;;
6217;SDS011;3142;48.206;11.550;2023-01-01T08:19:59;4.10;;;2.73;;
6217;SDS011;3142;48.206;11.550;2023-01-01T08:22:25;4.07;;;3.10;;
6217;SDS011;3142;48.206;11.550;2023-01-01T08:24:52;3.77;;;2.90;;
6217;SDS011;3142;48.206;11.550;2023-01-01T08:27:18;4.30;;;3.13;;
6217;SDS011;3142;48.206;11.550;2023-01-01T08:29:45;3.80;;;2.83;;
6217;SDS011;3142;48.206;11.550;2023-01-01T08:32:11;4.30;;;2.53;;
6217;SDS011;3142;48.206;11.550;2023-01-01T08:34:38;6.17;;;3.10;;
6217;SDS011;3142;48.206;11.550;2023-01-01T08:37:08;6.20;;;3.80;;
6217;SDS011;3142;48.206;11.550;2023-01-01T08:39:38;4.97;;;3.67;;
6217;SDS011;3142;48.206;11.550;2023-01-01T08:42:04;3.80;;;3.37;;
6217;SDS011;3142;48.206;11.550;2023-01-01T08:44:31;3.43;;;3.00;;
6217;SDS011;3142;48.206;11.550;2023-01-01T08:46:57;3.10;;;2.60;;
6217;SDS011;3142;48.206;11.550;2023-01-01T08:49:24;3.60;;;3.10;;
6217;SDS011;3142;48.206;11.550;2023-01-01T08:51:50;2.60;;;2.40;;
6217;SDS011;3142;48.206;11.550;2023-01-01T08:54:18;2.97;;;2.67;;
6217;SDS011;3142;48.206;11.550;2023-01-01T08:56:44;4.80;;;3.93;;
6217;SDS011;3142;48.206;11.550;2023-01-01T08:59:11;41.20;;;27.13;;
6217;SDS011;3142;48.206;11.550;2023-01-01T09:01:37;12.23;;;8.10;;
6217;SDS011;3142;48.206;11.550;2023-01-01T09:04:04;4.33;;;3.50;;
6217;SDS011;3142;48.206;11.550;2023-01-01T09:06:31;13.27;;;9.20;;
6217;SDS011;3142;48.206;11.550;2023-01-01T09:08:58;4.23;;;3.13;;
6217;SDS011;3142;48.206;11.550;2023-01-01T09:11:26;7.93;;;3.77;;
6217;SDS011;3142;48.206;11.550;2023-01-01T09:13:53;8.03;;;4.90;;
6217;SDS011;3142;48.206;11.550;2023-01-01T09:16:20;11.40;;;7.10;;
6217;SDS011;3142;48.206;11.550;2023-01-01T09:18:46;7.33;;;5.30;;
6217;SDS011;3142;48.206;11.550;2023-01-01T09:21:13;9.93;;;7.77;;
6217;SDS011;3142;48.206;11.550;2023-01-01T09:23:40;4.80;;;3.43;;
6217;SDS011;3142;48.206;11.550;2023-01-01T09:26:07;3.97;;;3.47;;
6217;SDS011;3142;48.206;11.550;2023-01-01T09:28:36;3.70;;;2.90;;
6217;SDS011;3142;48.206;11.550;2023-01-01T09:31:03;5.13;;;4.23;;
6217;SDS011;3142;48.206;11.550;2023-01-01T09:33:30;3.10;;;2.30;;
6217;SDS011;3142;48.206;11.550;2023-01-01T09:36:10;3.20;;;2.50;;
6217;SDS011;3142;48.206;11.550;2023-01-01T09:38:37;4.23;;;3.70;;
6217;SDS011;3142;48.206;11.550;2023-01-01T09:41:04;3.80;;;2.90;;
6217;SDS011;3142;48.206;11.550;2023-01-01T09:43:42;4.10;;;3.30;;
6217;SDS011;3142;48.206;11.550;2023-01-01T09:46:21;2.83;;;2.53;;
6217;SDS011;3142;48.206;11.550;2023-01-01T09:48:50;3.37;;;2.80;;
6217;SDS011;3142;48.206;11.550;2023-01-01T09:51:20;3.17;;;2.80;;
6217;SDS011;3142;48.206;11.550;2023-01-01T09:53:49;12.73;;;9.67;;
6217;SDS011;3142;48.206;11.550;2023-01-01T09:56:22;6.13;;;5.17;;
6217;SDS011;3142;48.206;11.550;2023-01-01T09:58:53;3.40;;;2.60;;
6217;SDS011;3142;48.206;11.550;2023-01-01T10:01:25;3.87;;;2.30;;
6217;SDS011;3142;48.206;11.550;2023-01-01T10:04:01;5.50;;;3.93;;
6217;SDS011;3142;48.206;11.550;2023-01-01T10:06:46;6.80;;;3.20;;
6217;SDS011;3142;48.206;11.550;2023-01-01T10:09:19;4.00;;;2.60;;
6217;SDS011;3142;48.206;11.550;2023-01-01T10:11:54;5.27;;;2.60;;
6217;SDS011;3142;48.206;11.550;2023-01-01T10:14:31;3.80;;;2.87;;
6217;SDS011;3142;48.206;11.550;2023-01-01T10:17:01;15.60;;;8.17;;
6217;SDS011;3142;48.206;11.550;2023-01-01T10:19:32;8.40;;;3.23;;
6217;SDS011;3142;48.206;11.550;2023-01-01T10:22:03;5.67;;;4.10;;
6217;SDS011;3142;48.206;11.550;2023-01-01T10:24:35;2.97;;;2.63;;
6217;SDS011;3142;48.206;11.550;2023-01-01T10:27:08;3.97;;;3.17;;
6217;SDS011;3142;48.206;11.550;2023-01-01T10:29:48;3.40;;;2.23;;
6217;SDS011;3142;48.206;11.550;2023-01-01T10:32:18;2.50;;;2.20;;
6217;SDS011;3142;48.206;11.550;2023-01-01T10:34:46;3.00;;;2.30;;
6217;SDS011;3142;48.206;11.550;2023-01-01T10:37:14;3.00;;;2.53;;
6217;SDS011;3142;48.206;11.550;2023-01-01T10:39:41;4.47;;;3.37;;
6217;SDS011;3142;48.206;11.550;2023-01-01T10:42:10;2.47;;;2.20;;
6217;SDS011;3142;48.206;11.550;2023-01-01T10:44:37;2.80;;;2.20;;
6217;SDS011;3142;48.206;11.550;2023-01-01T10:47:08;4.27;;;2.57;;
6217;SDS011;3142;48.206;11.550;2023-01-01T10:49:52;3.07;;;2.30;;
6217;SDS011;3142;48.206;11.550;2023-01-01T10:52:21;3.00;;;2.50;;
6217;SDS011;3142;48.206;11.550;2023-01-01T10:54:51;5.37;;;2.27;;
6217;SDS011;3142;48.206;11.550;2023-01-01T10:57:19;3.67;;;2.93;;
6217;SDS011;3142;48.206;11.550;2023-01-01T10:59:54;3.03;;;2.40;;
6217;SDS011;3142;48.206;11.550;2023-01-01T11:02:38;5.33;;;3.10;;
6217;SDS011;3142;48.206;11.550;2023-01-01T11:05:12;5.67;;;5.00;;
6217;SDS011;3142;48.206;11.550;2023-01-01T11:07:41;3.00;;;2.20;;
6217;SDS011;3142;48.206;11.550;2023-01-01T11:10:14;2.43;;;2.20;;
6217;SDS011;3142;48.206;11.550;2023-01-01T11:12:42;2.37;;;2.03;;
6217;SDS011;3142;48.206;11.550;2023-01-01T11:15:18;2.27;;;1.80;;
6217;SDS011;3142;48.206;11.550;2023-01-01T11:17:48;2.47;;;2.13;;
6217;SDS011;3142;48.206;11.550;2023-01-01T11:20:16;2.37;;;2.03;;
6217;SDS011;3142;48.206;11.550;2023-01-01T11:22:46;2.33;;;1.83;;
6217;SDS011;3142;48.206;11.550;2023-01-01T11:25:17;1.93;;;1.63;;
6217;SDS011;3142;48.206;11.550;2023-01-01T11:27:46;3.00;;;2.45;;
6217;SDS011;3142;48.206;11.550;2023-01-01T11:30:24;1.90;;;1.67;;
6217;SDS011;3142;48.206;11.550;2023-01-01T11:32:54;3.47;;;2.00;;
6217;SDS011;3142;48.206;11.550;2023-01-01T11:35:24;2.27;;;2.07;;
6217;SDS011;3142;48.206;11.550;2023-01-01T11:37:53;8.57;;;5.30;;
6217;SDS011;3142;48.206;11.550;2023-01-01T11:40:21;14.73;;;10.23;;
6217;SDS011;3142;48.206;11.550;2023-01-01T11:42:50;2.83;;;2.30;;
6217;SDS011;3142;48.206;11.550;2023-01-01T11:45:19;2.50;;;2.30;;
6217;SDS011;3142;48.206;11.550;2023-01-01T11:47:49;4.28;;;2.85;;
6217;SDS011;3142;48.206;11.550;2023-01-01T11:50:21;3.60;;;2.13;;
6217;SDS011;3142;48.206;11.550;2023-01-01T11:52:51;3.50;;;2.67;;
6217;SDS011;3142;48.206;11.550;2023-01-01T11:55:23;3.30;;;2.60;;
6217;SDS011;3142;48.206;11.550;2023-01-01T11:58:00;5.10;;;2.90;;
6217;SDS011;3142;48.206;11.550;2023-01-01T12:00:31;3.07;;;2.13;;
6217;SDS011;3142;48.206;11.550;2023-01-01T12:03:04;2.23;;;1.80;;
6217;SDS011;3142;48.206;11.550;2023-01-01T12:05:42;5.32;;;2.47;;
6217;SDS011;3142;48.206;11.550;2023-01-01T12:08:15;3.20;;;2.30;;
6217;SDS011;3142;48.206;11.550;2023-01-01T12:10:48;1.90;;;1.80;;
6217;SDS011;3142;48.206;11.550;2023-01-01T12:13:19;2.17;;;2.00;;
6217;SDS011;3142;48.206;11.550;2023-01-01T12:15:50;3.73;;;2.70;;
6217;SDS011;3142;48.206;11.550;2023-01-01T12:18:26;2.38;;;2.03;;
6217;SDS011;3142;48.206;11.550;2023-01-01T12:21:00;2.70;;;2.00;;
6217;SDS011;3142;48.206;11.550;2023-01-01T12:23:30;2.20;;;1.85;;
6217;SDS011;3142;48.206;11.550;2023-01-01T12:25:59;2.08;;;1.88;;
6217;SDS011;3142;48.206;11.550;2023-01-01T12:28:39;4.97;;;4.20;;
6217;SDS011;3142;48.206;11.550;2023-01-01T12:31:15;2.38;;;1.95;;
6217;SDS011;3142;48.206;11.550;2023-01-01T12:33:57;2.92;;;2.00;;
6217;SDS011;3142;48.206;11.550;2023-01-01T12:36:40;4.60;;;3.95;;
6217;SDS011;3142;48.206;11.550;2023-01-01T12:39:35;3.03;;;2.67;;
6217;SDS011;3142;48.206;11.550;2023-01-01T12:42:33;3.45;;;2.10;;
6217;SDS011;3142;48.206;11.550;2023-01-01T12:51:00;3.25;;;1.83;;
6217;SDS011;3142;48.206;11.550;2023-01-01T12:53:42;2.10;;;1.85;;
6217;SDS011;3142;48.206;11.550;2023-01-01T12:56:16;2.40;;;1.85;;
6217;SDS011;3142;48.206;11.550;2023-01-01T12:58:49;19.63;;;13.30;;
6217;SDS011;3142;48.206;11.550;2023-01-01T13:01:20;5.22;;;3.88;;
6217;SDS011;3142;48.206;11.550;2023-01-01T13:03:49;3.00;;;2.20;;
6217;SDS011;3142;48.206;11.550;2023-01-01T13:06:19;3.00;;;1.83;;
6217;SDS011;3142;48.206;11.550;2023-01-01T13:08:53;2.00;;;1.77;;
6217;SDS011;3142;48.206;11.550;2023-01-01T13:11:24;2.17;;;1.90;;
6217;SDS011;3142;48.206;11.550;2023-01-01T13:13:52;1.80;;;1.60;;
6217;SDS011;3142;48.206;11.550;2023-01-01T13:16:30;6.30;;;5.40;;
6217;SDS011;3142;48.206;11.550;2023-01-01T13:18:59;6.10;;;5.28;;
6217;SDS011;3142;48.206;11.550;2023-01-01T13:21:25;4.53;;;3.60;;
6217;SDS011;3142;48.206;11.550;2023-01-01T13:23:55;8.68;;;6.60;;
6217;SDS011;3142;48.206;11.550;2023-01-01T13:26:33;2.78;;;2.33;;
6217;SDS011;3142;48.206;11.550;2023-01-01T13:32:15;6.30;;;4.78;;
6217;SDS011;3142;48.206;11.550;2023-01-01T13:37:30;4.78;;;3.80;;
6217;SDS011;3142;48.206;11.550;2023-01-01T13:45:56;2.40;;;1.92;;
6217;SDS011;3142;48.206;11.550;2023-01-01T13:48:37;2.13;;;1.92;;
6217;SDS011;3142;48.206;11.550;2023-01-01T13:51:23;2.17;;;1.90;;
6217;SDS011;3142;48.206;11.550;2023-01-01T13:54:04;4.75;;;2.15;;
6217;SDS011;3142;48.206;11.550;2023-01-01T13:56:47;3.20;;;2.20;;
6217;SDS011;3142;48.206;11.550;2023-01-01T13:59:22;2.30;;;1.60;;
6217;SDS011;3142;48.206;11.550;2023-01-01T14:02:17;4.45;;;3.85;;
6217;SDS011;3142;48.206;11.550;2023-01-01T14:04:48;7.50;;;5.28;;
6217;SDS011;3142;48.206;11.550;2023-01-01T14:07:30;13.18;;;9.65;;
6217;SDS011;3142;48.206;11.550;2023-01-01T14:13:11;2.65;;;2.17;;
6217;SDS011;3142;48.206;11.550;2023-01-01T14:15:43;2.40;;;1.85;;
6217;SDS011;3142;48.206;11.550;2023-01-01T14:18:16;3.40;;;2.22;;
6217;SDS011;3142;48.206;11.550;2023-01-01T14:20:45;2.45;;;2.08;;
6217;SDS011;3142;48.206;11.550;2023-01-01T14:23:14;4.13;;;1.80;;
6217;SDS011;3142;48.206;11.550;2023-01-01T14:25:44;3.47;;;1.58;;
6217;SDS011;3142;48.206;11.550;2023-01-01T14:30:41;6.43;;;1.92;;
6217;SDS011;3142;48.206;11.550;2023-01-01T14:33:19;4.47;;;3.70;;
6217;SDS011;3142;48.206;11.550;2023-01-01T14:35:50;3.05;;;2.40;;
6217;SDS011;3142;48.206;11.550;2023-01-01T14:38:22;3.63;;;2.65;;
6217;SDS011;3142;48.206;11.550;2023-01-01T14:40:58;3.83;;;3.10;;
6217;SDS011;3142;48.206;11.550;2023-01-01T14:43:31;2.70;;;1.73;;
6217;SDS011;3142;48.206;11.550;2023-01-01T14:46:02;5.73;;;3.53;;
6217;SDS011;3142;48.206;11.550;2023-01-01T14:48:30;2.40;;;1.97;;
6217;SDS011;3142;48.206;11.550;2023-01-01T14:50:56;2.40;;;1.77;;
6217;SDS011;3142;48.206;11.550;2023-01-01T14:53:26;2.60;;;1.85;;
6217;SDS011;3142;48.206;11.550;2023-01-01T14:55:55;13.33;;;9.87;;
6217;SDS011;3142;48.206;11.550;2023-01-01T14:58:23;9.43;;;7.90;;
6217;SDS011;3142;48.206;11.550;2023-01-01T15:00:52;3.27;;;2.97;;
6217;SDS011;3142;48.206;11.550;2023-01-01T15:03:21;3.00;;;2.40;;
6217;SDS011;3142;48.206;11.550;2023-01-01T15:05:56;6.60;;;3.60;;
6217;SDS011;3142;48.206;11.550;2023-01-01T15:08:24;13.87;;;9.73;;
6217;SDS011;3142;48.206;11.550;2023-01-01T15:10:51;7.80;;;5.90;;
6217;SDS011;3142;48.206;11.550;2023-01-01T15:13:19;4.40;;;3.30;;
6217;SDS011;3142;48.206;11.550;2023-01-01T15:15:48;4.53;;;2.57;;
6217;SDS011;3142;48.206;11.550;2023-01-01T15:21:19;3.33;;;2.10;;
6217;SDS011;3142;48.206;11.550;2023-01-01T15:23:58;3.33;;;2.60;;
6217;SDS011;3142;48.206;11.550;2023-01-01T15:26:28;4.40;;;2.60;;
6217;SDS011;3142;48.206;11.550;2023-01-01T15:28:56;6.37;;;4.30;;
6217;SDS011;3142;48.206;11.550;2023-01-01T15:31:32;3.90;;;2.20;;
6217;SDS011;3142;48.206;11.550;2023-01-01T15:33:59;2.47;;;2.27;;
6217;SDS011;3142;48.206;11.550;2023-01-01T15:36:27;3.07;;;1.93;;
6217;SDS011;3142;48.206;11.550;2023-01-01T15:38:54;3.90;;;2.77;;